Time;durP1;ratioP1;P1;durP2;ratioP2;P2;SDS_P1;SDS_P2;PMS_P1;PMS_P2;Temp;Humidity;BMP_temperature;BMP_pressure;BME280_temperature;BME280_humidity;BME280_pressure;Samples;Min_cycle;Max_cycle;Signal;HPM_P1;HPM_P2
2023/05/24 00:01:26;;;;;;;19.65;5.40;;;7.90;99.90;;;;;;4879616;29;20105;-88
2023/05/24 00:03:52;;;;;;;23.42;4.93;;;7.30;99.90;;;;;;4877385;29;20558;-87
2023/05/24 00:06:21;;;;;;;23.40;5.30;;;7.60;99.90;;;;;;4877924;29;20105;-87
2023/05/24 00:08:46;;;;;;;21.15;5.47;;;7.30;99.90;;;;;;4878390;29;20077;-87
2023/05/24 00:11:12;;;;;;;22.98;6.20;;;8.10;99.90;;;;;;4877270;29;20057;-87
2023/05/24 00:13:38;;;;;;;23.47;5.80;;;8.40;99.90;;;;;;4878005;29;20079;-87
2023/05/24 00:16:03;;;;;;;22.33;5.30;;;7.30;99.90;;;;;;4879565;29;20135;-87
2023/05/24 00:18:32;;;;;;;18.27;5.07;;;7.30;99.90;;;;;;4878588;29;20048;-88
2023/05/24 00:20:58;;;;;;;29.90;5.55;;;7.30;99.90;;;;;;4878122;29;20055;-87
2023/05/24 00:23:24;;;;;;;20.98;5.75;;;7.20;99.90;;;;;;4879038;29;20128;-87
2023/05/24 00:26:00;;;;;;;23.17;5.90;;;7.30;99.90;;;;;;4877287;29;20049;-88
2023/05/24 00:28:26;;;;;;;21.77;5.72;;;7.70;99.90;;;;;;4879455;29;20049;-88
2023/05/24 00:30:51;;;;;;;23.95;5.88;;;7.80;99.90;;;;;;4877428;29;20049;-87
2023/05/24 00:33:17;;;;;;;24.25;5.68;;;7.70;99.90;;;;;;4877293;29;20466;-87
2023/05/24 00:35:43;;;;;;;19.27;5.05;;;7.30;99.90;;;;;;4879036;29;20124;-87
2023/05/24 00:38:08;;;;;;;26.05;6.30;;;7.40;99.90;;;;;;4878157;29;20037;-88
2023/05/24 00:40:34;;;;;;;16.55;4.95;;;7.50;99.90;;;;;;4878640;29;20057;-87
2023/05/24 00:43:00;;;;;;;19.20;5.45;;;7.30;99.90;;;;;;4877913;29;20037;-88
2023/05/24 00:45:25;;;;;;;22.88;5.68;;;7.30;99.90;;;;;;4878281;29;20498;-87
2023/05/24 00:47:51;;;;;;;28.52;6.03;;;7.30;99.90;;;;;;4877608;29;20057;-87
2023/05/24 00:50:18;;;;;;;24.80;6.55;;;7.30;99.90;;;;;;4878925;29;20053;-87
2023/05/24 00:52:46;;;;;;;20.17;5.40;;;7.30;99.90;;;;;;4876833;29;20041;-88
2023/05/24 00:55:12;;;;;;;27.58;6.10;;;7.30;99.90;;;;;;4878628;29;20081;-88
2023/05/24 00:57:38;;;;;;;21.52;5.68;;;7.50;99.90;;;;;;4878906;29;20573;-87
2023/05/24 01:00:06;;;;;;;20.48;5.65;;;7.30;99.90;;;;;;4877450;29;20057;-88
2023/05/24 01:02:32;;;;;;;21.23;5.47;;;7.30;99.90;;;;;;4879141;29;20041;-88
2023/05/24 01:04:58;;;;;;;19.80;6.15;;;7.20;99.90;;;;;;4877661;29;20052;-87
2023/05/24 01:07:29;;;;;;;24.33;6.18;;;7.90;99.90;;;;;;4876805;29;20049;-87
2023/05/24 01:10:08;;;;;;;19.85;5.40;;;7.20;99.90;;;;;;4879514;29;20085;-88
2023/05/24 01:12:49;;;;;;;22.75;5.82;;;7.20;99.90;;;;;;4877649;29;20100;-87
2023/05/24 01:15:29;;;;;;;18.95;5.75;;;7.10;99.90;;;;;;4878608;29;20053;-88
2023/05/24 01:18:07;;;;;;;21.23;5.45;;;7.10;99.90;;;;;;4877361;29;20076;-87
2023/05/24 01:20:36;;;;;;;22.63;5.53;;;7.10;99.90;;;;;;4893805;29;20059;-87
2023/05/24 01:23:31;;;;;;;20.25;5.82;;;7.10;99.90;;;;;;4878278;29;20041;-86
2023/05/24 01:26:16;;;;;;;23.17;6.15;;;7.10;99.90;;;;;;4878074;29;20057;-87
2023/05/24 01:28:43;;;;;;;26.27;5.93;;;7.00;99.90;;;;;;4876910;29;20437;-87
2023/05/24 01:31:13;;;;;;;24.55;6.25;;;7.00;99.90;;;;;;4878669;29;20410;-87
2023/05/24 01:33:41;;;;;;;18.90;5.90;;;7.10;99.90;;;;;;4877383;29;20057;-87
2023/05/24 01:36:07;;;;;;;26.27;5.70;;;7.00;99.90;;;;;;4877778;29;20041;-88
2023/05/24 01:38:32;;;;;;;20.83;6.32;;;6.90;99.90;;;;;;4877175;29;20080;-87
2023/05/24 01:41:06;;;;;;;25.13;6.68;;;7.60;99.90;;;;;;4878011;29;20124;-88
2023/05/24 01:43:42;;;;;;;20.65;5.95;;;7.00;99.90;;;;;;4877296;29;20048;-87
2023/05/24 01:46:16;;;;;;;23.33;6.35;;;6.90;99.90;;;;;;4880058;29;20049;-88
2023/05/24 01:49:19;;;;;;;17.98;5.93;;;6.90;99.90;;;;;;4880217;29;20053;-87
2023/05/24 01:52:10;;;;;;;24.23;5.95;;;6.90;99.90;;;;;;4882143;29;20101;-87
2023/05/24 01:54:39;;;;;;;25.75;6.00;;;6.90;99.90;;;;;;4880956;29;20458;-87
2023/05/24 01:57:08;;;;;;;24.00;6.00;;;7.10;99.90;;;;;;4879883;29;20060;-87
2023/05/24 01:59:37;;;;;;;23.83;6.03;;;7.40;99.90;;;;;;4880774;29;20562;-87
2023/05/24 02:02:02;;;;;;;22.80;6.28;;;6.90;99.90;;;;;;4879042;29;20055;-87
2023/05/24 02:04:29;;;;;;;23.88;6.80;;;6.90;99.90;;;;;;4879441;29;20052;-88
2023/05/24 02:06:57;;;;;;;19.90;6.18;;;6.90;99.90;;;;;;4880255;29;20060;-88
2023/05/24 02:09:26;;;;;;;26.88;6.95;;;6.90;99.90;;;;;;4894441;29;20021;-87
2023/05/24 02:11:51;;;;;;;24.48;5.82;;;7.60;99.90;;;;;;4901284;29;20073;-88
2023/05/24 02:14:18;;;;;;;21.70;5.70;;;7.40;99.90;;;;;;4884311;29;20500;-87
2023/05/24 02:16:45;;;;;;;24.02;6.20;;;6.80;99.90;;;;;;4882383;29;20064;-88
2023/05/24 02:19:12;;;;;;;25.58;6.07;;;7.40;99.90;;;;;;4881293;29;20129;-87
2023/05/24 02:21:38;;;;;;;29.23;7.05;;;8.30;99.90;;;;;;4881761;29;20124;-87
2023/05/24 02:24:06;;;;;;;26.20;6.07;;;7.70;99.90;;;;;;4880133;29;20057;-87
2023/05/24 02:26:32;;;;;;;23.48;5.80;;;7.10;99.90;;;;;;4880633;29;20520;-87
2023/05/24 02:28:58;;;;;;;30.25;7.07;;;7.90;99.90;;;;;;4881181;29;20045;-88
2023/05/24 02:31:27;;;;;;;26.05;5.75;;;8.10;99.90;;;;;;4879148;29;20041;-88
2023/05/24 02:33:54;;;;;;;29.33;6.43;;;8.20;99.90;;;;;;4880084;29;20445;-87
2023/05/24 02:36:22;;;;;;;25.65;6.53;;;8.20;99.90;;;;;;4879709;29;20393;-87
2023/05/24 02:38:48;;;;;;;25.10;6.82;;;7.10;99.90;;;;;;4880387;29;20405;-88
2023/05/24 02:41:16;;;;;;;20.15;5.80;;;7.10;99.90;;;;;;4879539;29;20041;-87
2023/05/24 02:43:43;;;;;;;22.65;6.28;;;7.00;99.90;;;;;;4879934;29;20061;-88
2023/05/24 02:46:09;;;;;;;26.17;6.95;;;8.10;99.90;;;;;;4878706;29;20479;-88
2023/05/24 02:48:35;;;;;;;21.65;5.78;;;7.80;99.90;;;;;;4880024;29;20092;-87
2023/05/24 02:51:02;;;;;;;23.35;6.40;;;7.00;99.90;;;;;;4879747;29;20489;-88
2023/05/24 02:53:28;;;;;;;27.90;6.25;;;7.00;99.90;;;;;;4879083;29;20056;-87
2023/05/24 02:55:57;;;;;;;24.70;6.10;;;7.50;99.90;;;;;;4879205;29;20561;-88
2023/05/24 02:58:23;;;;;;;31.43;8.03;;;7.00;99.90;;;;;;4879353;29;20108;-87
2023/05/24 03:00:49;;;;;;;23.03;6.30;;;7.40;99.90;;;;;;4881857;29;20053;-87
2023/05/24 03:03:15;;;;;;;26.67;6.63;;;6.90;99.90;;;;;;4894955;29;20041;-87
2023/05/24 03:05:41;;;;;;;23.05;6.50;;;8.10;99.90;;;;;;4880014;29;20132;-87
2023/05/24 03:08:06;;;;;;;28.42;6.80;;;7.00;99.90;;;;;;4879037;29;20049;-87
2023/05/24 03:10:32;;;;;;;21.85;6.25;;;6.90;99.90;;;;;;4879150;29;20603;-87
2023/05/24 03:12:58;;;;;;;24.98;6.32;;;6.90;99.90;;;;;;4878893;29;20101;-87
2023/05/24 03:15:23;;;;;;;30.80;6.85;;;6.90;99.90;;;;;;4878963;29;20048;-87
2023/05/24 03:17:49;;;;;;;21.50;6.50;;;6.80;99.90;;;;;;4879427;29;20055;-87
2023/05/24 03:20:16;;;;;;;26.95;7.25;;;6.80;99.90;;;;;;4878290;29;20426;-87
2023/05/24 03:22:42;;;;;;;24.13;6.40;;;6.70;99.90;;;;;;4879046;29;20082;-88
2023/05/24 03:25:08;;;;;;;23.42;6.25;;;7.50;99.90;;;;;;4878561;29;20101;-87
2023/05/24 03:27:35;;;;;;;27.67;6.93;;;6.70;99.90;;;;;;4879394;29;20549;-88
2023/05/24 03:30:01;;;;;;;26.55;6.32;;;7.10;99.90;;;;;;4880394;29;20053;-88
2023/05/24 03:32:39;;;;;;;27.20;6.22;;;7.70;99.90;;;;;;4878806;29;20132;-88
2023/05/24 03:35:05;;;;;;;23.98;6.00;;;6.40;99.90;;;;;;4878215;29;20081;-87
2023/05/24 03:37:30;;;;;;;27.55;7.35;;;6.70;99.90;;;;;;4879012;29;20120;-87
2023/05/24 03:39:56;;;;;;;26.85;6.20;;;6.70;99.90;;;;;;4879693;29;20064;-87
2023/05/24 03:42:21;;;;;;;24.80;6.53;;;6.70;99.90;;;;;;4879792;29;20048;-87
2023/05/24 03:44:47;;;;;;;26.80;7.38;;;7.60;99.90;;;;;;4879748;29;20505;-88
2023/05/24 03:47:19;;;;;;;27.98;6.43;;;7.90;99.90;;;;;;4880153;29;20053;-87
2023/05/24 03:49:44;;;;;;;30.85;7.00;;;7.30;99.90;;;;;;4877920;29;20089;-88
2023/05/24 03:52:10;;;;;;;24.80;7.00;;;7.20;99.90;;;;;;4878543;29;20041;-87
2023/05/24 03:54:36;;;;;;;29.17;7.03;;;7.80;99.90;;;;;;4878457;29;20509;-87
2023/05/24 03:57:02;;;;;;;25.45;6.95;;;8.30;99.90;;;;;;4878837;29;20512;-87
2023/05/24 03:59:29;;;;;;;26.00;6.65;;;7.10;99.90;;;;;;4879657;29;20049;-87
2023/05/24 04:02:01;;;;;;;24.88;6.13;;;7.20;99.90;;;;;;4878894;29;20041;-87
2023/05/24 04:04:27;;;;;;;23.58;6.50;;;7.30;99.90;;;;;;4882275;29;20052;-87
2023/05/24 04:06:52;;;;;;;22.92;6.22;;;7.90;99.90;;;;;;4877571;29;20082;-87
2023/05/24 04:09:18;;;;;;;26.02;6.93;;;7.30;99.90;;;;;;4876536;29;20085;-87
2023/05/24 04:11:44;;;;;;;23.45;6.68;;;8.20;99.90;;;;;;4879215;29;20128;-87
2023/05/24 04:14:10;;;;;;;22.42;6.80;;;7.50;99.90;;;;;;4878286;29;20073;-87
2023/05/24 04:16:38;;;;;;;21.30;5.35;;;7.50;99.90;;;;;;4878776;29;20101;-88
2023/05/24 04:19:04;;;;;;;22.17;5.88;;;7.60;99.90;;;;;;4879685;29;20049;-88
2023/05/24 04:21:32;;;;;;;23.05;6.03;;;7.60;99.90;;;;;;4878776;29;20478;-87
2023/05/24 04:24:00;;;;;;;21.23;5.72;;;7.70;99.90;;;;;;4877382;29;20084;-87
2023/05/24 04:26:26;;;;;;;23.25;5.65;;;7.90;99.90;;;;;;4877755;29;20084;-88
2023/05/24 04:28:52;;;;;;;22.30;5.40;;;8.80;99.90;;;;;;4879364;29;20049;-87
2023/05/24 04:31:19;;;;;;;20.20;5.47;;;8.00;99.90;;;;;;4877983;29;20445;-87
2023/05/24 04:33:46;;;;;;;22.83;5.40;;;8.10;99.90;;;;;;4878090;29;20060;-88
2023/05/24 04:36:12;;;;;;;23.02;5.50;;;8.20;99.90;;;;;;4879025;29;20049;-88
2023/05/24 04:38:38;;;;;;;26.13;5.65;;;8.80;99.90;;;;;;4878679;29;20072;-88
2023/05/24 04:41:04;;;;;;;20.95;5.13;;;9.40;99.90;;;;;;4879370;29;20379;-87
2023/05/24 04:43:31;;;;;;;20.52;5.50;;;9.40;99.90;;;;;;4878131;29;20045;-88
2023/05/24 04:45:59;;;;;;;19.33;5.63;;;9.50;99.90;;;;;;4877916;29;20090;-87
2023/05/24 04:48:24;;;;;;;25.02;5.13;;;8.60;99.90;;;;;;4884720;29;20523;-88
2023/05/24 04:50:54;;;;;;;20.10;5.38;;;8.50;99.90;;;;;;4885181;29;20481;-87
2023/05/24 04:53:20;;;;;;;17.42;5.25;;;9.20;99.90;;;;;;4879101;29;20052;-88
2023/05/24 04:55:46;;;;;;;17.80;5.15;;;9.70;99.90;;;;;;4879391;29;20049;-88
2023/05/24 04:58:13;;;;;;;22.27;5.28;;;9.40;99.90;;;;;;4878362;29;20041;-88
2023/05/24 05:00:38;;;;;;;18.33;5.25;;;9.30;99.90;;;;;;4879641;29;20045;-88
2023/05/24 05:03:04;;;;;;;25.15;5.30;;;8.80;99.90;;;;;;4878923;29;20426;-88
2023/05/24 05:05:30;;;;;;;19.38;4.55;;;8.80;99.90;;;;;;4878129;29;20064;-88
2023/05/24 05:07:56;;;;;;;19.00;5.05;;;8.90;99.90;;;;;;4883123;29;20065;-88
2023/05/24 05:10:22;;;;;;;19.48;5.20;;;9.80;99.90;;;;;;4901952;29;20059;-88
2023/05/24 05:12:47;;;;;;;19.15;4.95;;;10.20;99.90;;;;;;4889281;29;20041;-88
2023/05/24 05:15:25;;;;;;;20.85;5.05;;;10.20;99.90;;;;;;4885825;29;20045;-87
2023/05/24 05:17:53;;;;;;;16.95;4.47;;;9.10;99.90;;;;;;4880992;29;20041;-87
2023/05/24 05:20:19;;;;;;;18.55;5.18;;;9.40;99.90;;;;;;4878756;29;20193;-87
2023/05/24 05:22:48;;;;;;;20.52;4.40;;;10.50;99.90;;;;;;4882603;29;20048;-87
2023/05/24 05:25:14;;;;;;;22.17;4.68;;;10.30;99.90;;;;;;4880759;29;20123;-87
2023/05/24 05:27:45;;;;;;;23.70;6.13;;;9.40;99.90;;;;;;4882060;29;20197;-88
2023/05/24 05:30:11;;;;;;;16.60;4.13;;;10.60;99.90;;;;;;4880625;29;20052;-88
2023/05/24 05:32:37;;;;;;;19.13;4.43;;;9.70;99.90;;;;;;4882122;29;20489;-88
2023/05/24 05:35:03;;;;;;;17.98;4.22;;;10.70;99.90;;;;;;4895662;29;20104;-88
2023/05/24 05:37:32;;;;;;;19.17;4.97;;;9.70;99.90;;;;;;4882264;29;20052;-87
2023/05/24 05:39:58;;;;;;;17.98;5.07;;;9.70;99.90;;;;;;4880118;29;20413;-88
2023/05/24 05:42:23;;;;;;;18.58;4.80;;;10.80;99.90;;;;;;4880626;29;20041;-88
2023/05/24 05:44:49;;;;;;;21.67;5.10;;;10.60;99.90;;;;;;4880704;29;20045;-87
2023/05/24 05:47:14;;;;;;;17.33;4.28;;;10.50;99.90;;;;;;4879732;29;20049;-87
2023/05/24 05:49:40;;;;;;;19.90;4.70;;;9.80;99.90;;;;;;4880767;29;20045;-88
2023/05/24 05:52:06;;;;;;;20.88;4.80;;;9.90;99.90;;;;;;4880750;29;20113;-88
2023/05/24 05:54:31;;;;;;;19.20;4.15;;;10.10;99.90;;;;;;4880207;29;20041;-87
2023/05/24 05:56:57;;;;;;;20.67;4.22;;;11.10;99.90;;;;;;4882202;29;20057;-89
2023/05/24 05:59:23;;;;;;;16.33;4.47;;;10.20;99.90;;;;;;4880429;29;20048;-82
2023/05/24 06:01:49;;;;;;;19.13;4.65;;;10.20;99.90;;;;;;4880697;29;20429;-84
2023/05/24 06:04:15;;;;;;;18.70;4.32;;;10.30;99.90;;;;;;4880204;29;20047;-81
2023/05/24 06:06:40;;;;;;;19.45;4.45;;;10.30;99.90;;;;;;4881246;29;20052;-82
2023/05/24 06:09:07;;;;;;;17.00;4.32;;;10.40;99.90;;;;;;4879504;29;20044;-81
2023/05/24 06:11:43;;;;;;;21.50;5.15;;;10.50;99.90;;;;;;4882146;29;20425;-82
2023/05/24 06:14:11;;;;;;;20.08;4.40;;;11.60;99.90;;;;;;4879701;29;20060;-82
2023/05/24 06:16:40;;;;;;;17.77;4.30;;;10.60;99.90;;;;;;4879395;29;20524;-82
2023/05/24 06:19:06;;;;;;;14.13;3.90;;;10.80;99.90;;;;;;4879941;29;20095;-81
2023/05/24 06:21:39;;;;;;;18.58;4.78;;;10.90;99.90;;;;;;4870986;29;20185;-82
2023/05/24 06:24:12;;;;;;;18.00;5.00;;;10.70;99.90;;;;;;4864576;29;20057;-82
2023/05/24 06:26:37;;;;;;;17.20;4.00;;;10.90;99.90;;;;;;4874552;29;20413;-83
2023/05/24 06:29:12;;;;;;;17.38;4.15;;;11.00;99.90;;;;;;4880256;29;20045;-82
2023/05/24 06:31:38;;;;;;;17.83;4.43;;;11.10;99.90;;;;;;4880240;29;20104;-82
2023/05/24 06:34:17;;;;;;;15.00;4.13;;;11.20;99.90;;;;;;4881383;29;20474;-82
2023/05/24 06:36:46;;;;;;;17.05;4.28;;;11.30;99.90;;;;;;4876987;29;20041;-81
2023/05/24 06:39:15;;;;;;;19.35;4.25;;;11.40;99.90;;;;;;4878701;29;20549;-82
2023/05/24 06:41:42;;;;;;;16.50;4.03;;;11.50;99.90;;;;;;4880697;29;20060;-82
2023/05/24 06:44:08;;;;;;;16.13;4.30;;;11.60;99.90;;;;;;4879930;29;20053;-82
2023/05/24 06:46:33;;;;;;;17.65;4.22;;;11.80;99.90;;;;;;4879430;29;20049;-82
2023/05/24 06:49:02;;;;;;;15.90;4.43;;;12.00;99.90;;;;;;4881060;29;20172;-82
2023/05/24 06:51:29;;;;;;;20.63;4.57;;;12.20;99.90;;;;;;4877978;29;20139;-82
2023/05/24 06:53:54;;;;;;;19.48;5.18;;;12.30;99.90;;;;;;4879379;29;20057;-82
2023/05/24 06:56:20;;;;;;;20.50;4.40;;;12.90;99.90;;;;;;4880428;29;20056;-82
2023/05/24 06:58:46;;;;;;;15.65;4.13;;;12.10;99.90;;;;;;4878965;29;20056;-82
2023/05/24 07:01:14;;;;;;;19.27;4.30;;;12.10;99.90;;;;;;4878849;29;20048;-82
2023/05/24 07:03:40;;;;;;;15.98;4.60;;;12.00;99.90;;;;;;4879567;29;20045;-84
2023/05/24 07:06:08;;;;;;;18.08;4.18;;;12.20;99.90;;;;;;4879059;29;20077;-85
2023/05/24 07:08:34;;;;;;;20.73;4.75;;;12.00;99.90;;;;;;4879238;29;20060;-83
2023/05/24 07:11:01;;;;;;;15.57;3.92;;;12.30;99.90;;;;;;4880457;29;20037;-84
2023/05/24 07:13:26;;;;;;;19.88;5.25;;;11.90;99.90;;;;;;4878150;29;20413;-83
2023/05/24 07:15:52;;;;;;;12.35;3.70;;;13.00;99.90;;;;;;4878577;29;20127;-83
2023/05/24 07:18:17;;;;;;;16.30;4.10;;;13.10;99.90;;;;;;4878701;29;20045;-83
2023/05/24 07:20:43;;;;;;;17.13;3.90;;;12.10;99.90;;;;;;4878873;29;20493;-84
2023/05/24 07:23:09;;;;;;;18.30;4.30;;;12.80;99.90;;;;;;4874425;29;20037;-82
2023/05/24 07:25:35;;;;;;;13.45;3.88;;;12.50;99.90;;;;;;4871602;29;20088;-82
2023/05/24 07:28:00;;;;;;;16.77;4.10;;;12.40;99.90;;;;;;4870214;29;20040;-82
2023/05/24 07:30:26;;;;;;;14.73;3.88;;;12.30;99.90;;;;;;4867417;29;20052;-85
2023/05/24 07:32:52;;;;;;;17.75;4.35;;;12.40;99.90;;;;;;4869030;29;20080;-82
2023/05/24 07:35:17;;;;;;;17.42;4.22;;;12.70;99.90;;;;;;4869018;29;20064;-83
2023/05/24 07:37:43;;;;;;;16.42;4.63;;;12.30;99.90;;;;;;4878809;29;20446;-83
2023/05/24 07:43:14;;;;;;;15.40;3.95;;;12.30;99.90;;;;;;4858205;29;20057;-82
2023/05/24 07:45:40;;;;;;;16.40;3.83;;;12.40;99.90;;;;;;4859413;29;20502;-83
2023/05/24 07:48:05;;;;;;;12.10;3.55;;;12.40;99.90;;;;;;4859204;29;20088;-82
2023/05/24 07:50:32;;;;;;;18.10;4.38;;;12.40;99.90;;;;;;4867926;29;20056;-83
2023/05/24 07:53:00;;;;;;;16.20;3.95;;;12.30;99.90;;;;;;4872707;29;20056;-82
2023/05/24 07:55:28;;;;;;;12.25;3.70;;;12.20;99.90;;;;;;4849046;29;20053;-82
2023/05/24 07:57:55;;;;;;;15.45;3.78;;;12.40;99.90;;;;;;4840963;29;20102;-82
2023/05/24 08:00:27;;;;;;;21.45;3.80;;;12.10;99.90;;;;;;4840448;29;20049;-83
2023/05/24 08:02:52;;;;;;;16.20;3.78;;;12.00;99.90;;;;;;4840280;29;20078;-82
2023/05/24 08:05:18;;;;;;;16.65;4.57;;;13.20;99.90;;;;;;4840920;29;20090;-83
2023/05/24 08:07:44;;;;;;;15.38;4.00;;;12.50;99.90;;;;;;4841755;29;20121;-82
2023/05/24 08:10:13;;;;;;;18.77;4.22;;;12.60;99.90;;;;;;4840736;29;20456;-83
2023/05/24 08:12:39;;;;;;;17.40;3.78;;;12.50;99.90;;;;;;4841036;29;20046;-81
2023/05/24 08:15:06;;;;;;;15.70;4.25;;;13.70;99.90;;;;;;4840488;29;20075;-83
2023/05/24 08:17:32;;;;;;;18.20;3.92;;;13.10;99.90;;;;;;4841285;29;20137;-84
2023/05/24 08:19:57;;;;;;;15.95;3.80;;;13.30;99.90;;;;;;4842021;29;20500;-81
2023/05/24 08:22:23;;;;;;;15.98;4.20;;;13.30;99.90;;;;;;4841118;29;20053;-80
2023/05/24 08:24:52;;;;;;;14.20;3.80;;;13.30;99.90;;;;;;4841099;29;20050;-80
2023/05/24 08:27:17;;;;;;;15.38;3.60;;;13.30;99.90;;;;;;4840629;29;20066;-80
2023/05/24 08:29:43;;;;;;;13.50;3.53;;;13.20;99.90;;;;;;4841659;29;20125;-80
2023/05/24 08:32:09;;;;;;;12.88;3.28;;;13.30;99.90;;;;;;4840844;29;20125;-81
2023/05/24 08:34:36;;;;;;;13.65;3.42;;;13.60;99.90;;;;;;4840794;29;20037;-80
2023/05/24 08:37:02;;;;;;;11.95;3.05;;;14.00;99.90;;;;;;4841347;29;20045;-80
2023/05/24 08:39:28;;;;;;;12.82;3.05;;;14.10;99.90;;;;;;4841663;29;20053;-80
2023/05/24 08:41:54;;;;;;;12.82;3.25;;;14.40;99.90;;;;;;4840472;29;20069;-80
2023/05/24 08:44:21;;;;;;;14.05;3.25;;;14.50;99.90;;;;;;4840603;29;20494;-80
2023/05/24 08:46:49;;;;;;;12.13;3.00;;;15.50;99.90;;;;;;4840406;29;20510;-80
2023/05/24 08:49:15;;;;;;;13.80;3.47;;;14.40;99.90;;;;;;4840166;29;20050;-80
2023/05/24 08:51:43;;;;;;;11.45;3.13;;;14.40;99.90;;;;;;4839667;29;20068;-80
2023/05/24 08:54:11;;;;;;;13.23;3.20;;;15.00;99.90;;;;;;4840164;29;20436;-80
2023/05/24 08:56:38;;;;;;;14.25;3.78;;;14.80;99.90;;;;;;4841541;29;20078;-80
2023/05/24 08:59:04;;;;;;;12.75;3.13;;;15.20;99.90;;;;;;4839710;29;20085;-80
2023/05/24 09:01:31;;;;;;;13.40;3.55;;;14.70;99.90;;;;;;4840277;29;20062;-80
2023/05/24 09:03:59;;;;;;;12.85;3.20;;;14.60;99.90;;;;;;4841182;29;20053;-80
2023/05/24 09:06:25;;;;;;;14.27;3.20;;;15.10;99.90;;;;;;4839532;29;20076;-80
2023/05/24 09:08:52;;;;;;;12.35;3.53;;;14.30;99.90;;;;;;4840454;29;20046;-80
2023/05/24 09:11:20;;;;;;;11.98;3.03;;;14.80;99.90;;;;;;4840670;29;20110;-80
2023/05/24 09:13:46;;;;;;;12.63;3.28;;;14.30;99.90;;;;;;4840360;29;20049;-80
2023/05/24 09:16:13;;;;;;;13.02;3.22;;;13.90;99.90;;;;;;4840252;29;20062;-80
2023/05/24 09:18:41;;;;;;;13.32;3.50;;;14.20;99.90;;;;;;4839813;29;20046;-80
2023/05/24 09:21:08;;;;;;;11.10;3.30;;;14.10;99.90;;;;;;4841172;29;20058;-80
2023/05/24 09:23:35;;;;;;;15.55;3.45;;;14.90;99.90;;;;;;4840187;29;20094;-81
2023/05/24 09:26:06;;;;;;;14.70;3.47;;;15.00;99.90;;;;;;4872716;29;20045;-81
2023/05/24 09:28:32;;;;;;;12.10;3.05;;;14.60;99.90;;;;;;4878696;29;20052;-80
2023/05/24 09:31:03;;;;;;;12.93;3.35;;;14.50;99.90;;;;;;4877316;29;20497;-81
2023/05/24 09:33:32;;;;;;;14.52;3.15;;;14.40;99.90;;;;;;4877618;29;20133;-81
2023/05/24 09:36:00;;;;;;;13.52;3.47;;;14.30;99.90;;;;;;4878112;29;20056;-80
2023/05/24 09:38:27;;;;;;;12.85;3.25;;;14.70;99.90;;;;;;4877988;29;20076;-81
2023/05/24 09:41:07;;;;;;;12.52;2.97;;;14.50;99.90;;;;;;4876313;29;20060;-78
2023/05/24 09:43:34;;;;;;;11.73;3.25;;;14.70;99.90;;;;;;4877128;29;20049;-80
2023/05/24 09:46:03;;;;;;;14.05;3.13;;;15.30;99.90;;;;;;4877930;29;20053;-80
2023/05/24 09:48:30;;;;;;;15.98;3.78;;;14.90;99.90;;;;;;4877421;29;20058;-79
2023/05/24 09:51:04;;;;;;;12.38;3.60;;;14.90;99.90;;;;;;4878006;29;20114;-80
2023/05/24 09:53:34;;;;;;;14.50;3.58;;;14.70;99.90;;;;;;4874653;29;20059;-82
2023/05/24 09:56:02;;;;;;;14.55;3.47;;;14.40;99.90;;;;;;4877644;29;20041;-83
2023/05/24 09:58:31;;;;;;;15.93;3.20;;;15.10;99.90;;;;;;4875388;29;20482;-82
2023/05/24 10:01:09;;;;;;;13.23;3.75;;;14.40;99.90;;;;;;4857701;29;20084;-82
2023/05/24 10:03:36;;;;;;;13.68;3.47;;;14.20;99.90;;;;;;4858464;29;20088;-81
2023/05/24 10:06:05;;;;;;;14.05;3.30;;;14.90;99.90;;;;;;4859373;29;20053;-82
2023/05/24 10:08:33;;;;;;;12.35;3.20;;;14.30;99.90;;;;;;4860940;29;20077;-82
2023/05/24 10:11:01;;;;;;;14.02;3.60;;;15.20;99.90;;;;;;4862500;29;20085;-82
2023/05/24 10:13:27;;;;;;;11.82;3.28;;;14.40;99.90;;;;;;4868664;29;20067;-83
2023/05/24 10:15:53;;;;;;;13.68;2.97;;;14.50;99.90;;;;;;4879703;29;20093;-83
2023/05/24 10:18:19;;;;;;;10.95;2.97;;;14.60;99.90;;;;;;4879839;29;20040;-82
2023/05/24 10:20:45;;;;;;;13.38;3.70;;;14.60;99.90;;;;;;4879518;29;20057;-82
2023/05/24 10:23:16;;;;;;;15.05;3.05;;;15.30;99.90;;;;;;4879168;29;20136;-82
2023/05/24 10:26:00;;;;;;;12.43;3.38;;;15.00;99.90;;;;;;4879826;29;20128;-82
2023/05/24 10:28:26;;;;;;;10.80;2.95;;;15.40;99.90;;;;;;4879304;29;20063;-81
2023/05/24 10:31:11;;;;;;;10.98;3.10;;;15.20;99.90;;;;;;4879589;29;20060;-82
2023/05/24 10:33:39;;;;;;;10.50;3.28;;;15.50;99.90;;;;;;4879626;29;20055;-82
2023/05/24 10:36:06;;;;;;;12.98;3.53;;;16.20;99.90;;;;;;4878789;29;20617;-82
2023/05/24 10:38:32;;;;;;;11.52;3.83;;;15.90;99.90;;;;;;4879700;29;20045;-82
2023/05/24 10:40:58;;;;;;;11.13;3.03;;;15.90;99.90;;;;;;4880744;29;20515;-81
2023/05/24 10:43:25;;;;;;;11.13;3.30;;;15.60;99.90;;;;;;4879895;29;20064;-82
2023/05/24 10:45:51;;;;;;;11.38;3.22;;;15.50;99.90;;;;;;4879038;29;20045;-82
2023/05/24 10:48:23;;;;;;;9.60;3.00;;;15.60;99.90;;;;;;4879074;29;20053;-82
2023/05/24 10:50:49;;;;;;;12.40;3.20;;;16.20;99.90;;;;;;4880147;29;20072;-82
2023/05/24 10:53:16;;;;;;;11.02;3.05;;;15.50;99.90;;;;;;4879309;29;20592;-81
2023/05/24 10:55:58;;;;;;;12.35;3.25;;;15.60;99.90;;;;;;4879390;29;20087;-82
2023/05/24 10:58:31;;;;;;;12.60;3.53;;;15.70;99.90;;;;;;4879905;29;20048;-82
2023/05/24 11:00:57;;;;;;;13.50;3.35;;;15.80;99.90;;;;;;4879398;29;20116;-83
2023/05/24 11:03:23;;;;;;;11.75;3.40;;;15.90;99.90;;;;;;4848186;29;20444;-83
2023/05/24 11:05:49;;;;;;;14.73;3.47;;;16.10;99.90;;;;;;4842704;29;20050;-84
2023/05/24 11:08:32;;;;;;;14.60;3.38;;;16.40;99.90;;;;;;4841880;29;20513;-84
2023/05/24 11:11:11;;;;;;;15.87;3.63;;;15.80;99.90;;;;;;4842718;29;20073;-84
2023/05/24 11:13:38;;;;;;;13.38;3.60;;;15.60;99.90;;;;;;4854964;29;20041;-85
2023/05/24 11:16:04;;;;;;;10.40;3.00;;;15.60;99.90;;;;;;4860683;29;20053;-82
2023/05/24 11:18:31;;;;;;;13.27;3.20;;;15.40;99.90;;;;;;4875274;29;20041;-81
2023/05/24 11:20:58;;;;;;;12.70;2.97;;;15.50;99.90;;;;;;4877054;29;20045;-82
2023/05/24 11:23:31;;;;;;;12.85;3.25;;;15.50;99.90;;;;;;4878768;29;20482;-81
2023/05/24 11:25:57;;;;;;;11.48;3.45;;;16.60;99.90;;;;;;4877874;29;20225;-80
2023/05/24 11:28:23;;;;;;;16.38;3.47;;;16.00;99.90;;;;;;4841530;29;20073;-82
2023/05/24 11:30:52;;;;;;;13.40;3.38;;;15.40;99.90;;;;;;4842681;29;20133;-81
2023/05/24 11:33:27;;;;;;;11.60;3.47;;;15.80;99.90;;;;;;4860663;29;20459;-81
2023/05/24 11:36:03;;;;;;;11.90;3.35;;;15.10;99.90;;;;;;4856785;29;20046;-80
2023/05/24 11:38:29;;;;;;;12.50;3.38;;;14.70;99.90;;;;;;4867503;29;20487;-80
2023/05/24 11:41:09;;;;;;;13.27;3.50;;;15.50;99.90;;;;;;4850266;29;20057;-81
2023/05/24 11:43:35;;;;;;;10.63;3.15;;;14.40;99.90;;;;;;4852332;29;20053;-81
2023/05/24 11:46:00;;;;;;;16.08;3.70;;;14.90;99.90;;;;;;4851638;29;20164;-81
2023/05/24 11:48:27;;;;;;;11.43;3.30;;;15.10;99.90;;;;;;4848926;29;20060;-81
2023/05/24 11:51:08;;;;;;;14.40;3.67;;;15.80;99.90;;;;;;4851750;29;20049;-81
2023/05/24 11:53:34;;;;;;;11.40;3.40;;;14.90;99.90;;;;;;4849578;29;20106;-82
2023/05/24 11:56:00;;;;;;;13.00;3.78;;;16.00;99.90;;;;;;4902513;23;20053;-81
2023/05/24 11:58:52;;;;;;;12.23;3.40;;;15.10;99.90;;;;;;4896347;29;20068;-82
2023/05/24 12:01:39;;;;;;;13.35;4.10;;;15.30;99.90;;;;;;4894654;29;20077;-81
2023/05/24 12:04:08;;;;;;;11.25;3.40;;;16.50;99.90;;;;;;4897424;29;20048;-81
2023/05/24 12:06:39;;;;;;;13.02;4.30;;;16.60;99.90;;;;;;4896376;29;20044;-81
2023/05/24 12:09:17;;;;;;;16.00;3.42;;;16.70;99.90;;;;;;4897057;29;20040;-81
2023/05/24 12:11:57;;;;;;;13.55;3.55;;;16.90;99.90;;;;;;4896295;29;20089;-81
2023/05/24 12:14:26;;;;;;;12.27;3.13;;;16.60;99.90;;;;;;4895061;29;20049;-81
2023/05/24 12:17:12;;;;;;;11.90;3.30;;;16.40;99.90;;;;;;4896049;29;20048;-81
2023/05/24 12:19:38;;;;;;;9.60;3.00;;;16.30;99.90;;;;;;4896320;29;20512;-82
2023/05/24 12:22:13;;;;;;;11.05;3.28;;;16.40;99.90;;;;;;4896652;29;20045;-81
2023/05/24 12:24:41;;;;;;;12.77;3.20;;;16.50;99.90;;;;;;4896022;29;20053;-82
2023/05/24 12:27:27;;;;;;;10.63;3.50;;;17.20;99.90;;;;;;4897292;29;20046;-82
2023/05/24 12:29:52;;;;;;;10.57;3.63;;;16.60;99.90;;;;;;4892856;29;20036;-82
2023/05/24 12:32:36;;;;;;;11.32;3.30;;;16.80;99.90;;;;;;4895506;29;20084;-82
2023/05/24 12:35:02;;;;;;;;;;;17.50;99.90;;;;;;4895091;29;20048;-82
2023/05/24 12:37:29;;;;;;;11.50;3.25;;;17.50;99.90;;;;;;4896981;29;19975;-82
2023/05/24 12:40:19;;;;;;;10.02;2.88;;;16.80;99.90;;;;;;4897396;29;20075;-82
2023/05/24 12:43:06;;;;;;;12.00;3.25;;;18.10;99.90;;;;;;4895098;29;20041;-82
2023/05/24 12:45:53;;;;;;;12.43;3.40;;;17.40;99.90;;;;;;4893754;29;20053;-82
2023/05/24 12:48:18;;;;;;;12.27;3.25;;;18.40;99.90;;;;;;4890777;29;20115;-82
2023/05/24 12:51:03;;;;;;;10.40;3.17;;;17.80;99.90;;;;;;4884823;29;20079;-82